createdAt,value
2019-05-26T00:00:19.265Z,0.00
2019-05-26T00:01:19.269Z,0.00
2019-05-26T00:02:19.245Z,0.00
2019-05-26T00:03:19.245Z,0.00
2019-05-26T00:04:19.274Z,0.00
2019-05-26T00:05:20.185Z,0.00
2019-05-26T00:06:19.204Z,0.00
2019-05-26T00:07:30.194Z,0.00
2019-05-26T00:08:20.189Z,0.00
2019-05-26T00:09:19.196Z,0.00
2019-05-26T00:10:19.514Z,0.00
2019-05-26T00:11:19.164Z,0.00
2019-05-26T00:12:19.146Z,0.00
2019-05-26T00:13:19.133Z,0.00
2019-05-26T00:14:19.149Z,0.00
2019-05-26T00:15:19.965Z,0.00
2019-05-26T00:16:19.133Z,0.00
2019-05-26T00:17:19.094Z,0.00
2019-05-26T00:18:19.094Z,0.00
2019-05-26T00:19:19.064Z,0.00
2019-05-26T00:20:19.566Z,0.00
2019-05-26T00:21:19.053Z,0.00
2019-05-26T00:22:19.355Z,0.00
2019-05-26T00:23:19.563Z,0.00
2019-05-26T00:24:19.022Z,0.00
2019-05-26T00:25:19.033Z,0.00
2019-05-26T00:26:19.003Z,0.00
2019-05-26T00:27:18.984Z,0.00
2019-05-26T00:28:19.078Z,0.00
2019-05-26T00:29:18.963Z,0.00
2019-05-26T00:30:18.963Z,0.00
2019-05-26T00:31:18.943Z,0.00
2019-05-26T00:32:18.933Z,0.00
2019-05-26T00:33:18.930Z,0.00
2019-05-26T00:34:19.862Z,0.00
2019-05-26T00:35:18.894Z,0.00
2019-05-26T00:36:18.897Z,0.00
2019-05-26T00:37:18.882Z,0.00
2019-05-26T00:38:19.538Z,0.00
2019-05-26T00:39:18.934Z,0.00
2019-05-26T00:40:19.536Z,0.00
2019-05-26T00:41:18.849Z,0.00
2019-05-26T00:42:18.821Z,0.00
2019-05-26T00:43:18.812Z,0.00
2019-05-26T00:44:18.802Z,0.00
2019-05-26T00:45:18.792Z,0.00
2019-05-26T00:46:19.113Z,0.00
2019-05-26T00:47:18.784Z,0.00
2019-05-26T00:48:18.785Z,0.00
2019-05-26T00:49:18.759Z,0.00
2019-05-26T00:50:18.742Z,0.00
2019-05-26T00:51:18.773Z,0.00
2019-05-26T00:52:18.761Z,0.00
2019-05-26T00:53:18.989Z,0.00
2019-05-26T00:54:18.701Z,0.00
2019-05-26T00:55:18.690Z,0.00
2019-05-26T00:56:18.680Z,0.00
2019-05-26T00:57:18.741Z,0.00
2019-05-26T00:58:18.701Z,0.00
2019-05-26T00:59:18.642Z,0.00
2019-05-26T01:00:18.928Z,0.00
2019-05-26T01:01:19.158Z,0.00
2019-05-26T01:02:18.611Z,0.00
2019-05-26T01:03:18.600Z,0.00
2019-05-26T01:04:19.430Z,0.00
2019-05-26T01:05:18.621Z,0.00
2019-05-26T01:06:18.623Z,0.00
2019-05-26T01:07:18.851Z,0.00
2019-05-26T01:08:18.547Z,0.00
2019-05-26T01:09:18.540Z,0.00
2019-05-26T01:10:18.580Z,0.00
2019-05-26T01:11:18.530Z,0.00
2019-05-26T01:12:18.509Z,0.00
2019-05-26T01:13:18.490Z,0.00
2019-05-26T01:14:18.771Z,0.00
2019-05-26T01:15:18.470Z,0.00
2019-05-26T01:16:18.517Z,0.00
2019-05-26T01:17:18.450Z,0.00
2019-05-26T01:18:18.448Z,0.00
2019-05-26T01:19:18.442Z,0.00
2019-05-26T01:20:18.427Z,0.00
2019-05-26T01:21:19.497Z,0.00
2019-05-26T01:22:18.458Z,0.00
2019-05-26T01:23:18.402Z,0.00
2019-05-26T01:24:18.380Z,0.00
2019-05-26T01:25:18.372Z,0.00
2019-05-26T01:26:18.370Z,0.00
2019-05-26T01:27:18.353Z,0.00
2019-05-26T01:28:18.680Z,0.00
2019-05-26T01:29:18.337Z,0.00
2019-05-26T01:30:18.328Z,0.00
2019-05-26T01:31:18.309Z,0.00
2019-05-26T01:32:21.238Z,0.00
2019-05-26T01:33:18.355Z,0.00
2019-05-26T01:34:18.339Z,0.00
2019-05-26T01:35:18.748Z,0.00
2019-05-26T01:36:18.757Z,0.00
2019-05-26T01:37:18.298Z,0.00
2019-05-26T01:38:23.789Z,0.00
2019-05-26T01:39:19.318Z,0.00
2019-05-26T01:40:18.218Z,0.00
2019-05-26T01:41:18.198Z,0.00
2019-05-26T01:42:18.199Z,0.00
2019-05-26T01:43:18.185Z,0.00
2019-05-26T01:44:18.177Z,0.00
2019-05-26T01:45:18.196Z,0.00
2019-05-26T01:46:18.148Z,0.00
2019-05-26T01:47:20.575Z,0.00
2019-05-26T01:48:18.137Z,0.00
2019-05-26T01:49:18.117Z,0.00
2019-05-26T01:50:18.114Z,0.00
2019-05-26T01:51:18.136Z,0.00
2019-05-26T01:52:18.085Z,0.00
2019-05-26T01:53:18.085Z,0.00
2019-05-26T01:54:18.346Z,0.00
2019-05-26T01:55:18.056Z,0.00
2019-05-26T01:56:18.047Z,0.00
2019-05-26T01:57:18.537Z,0.00
2019-05-26T01:58:18.078Z,0.00
2019-05-26T01:59:18.025Z,0.00
2019-05-26T02:01:40.028Z,0.00
2019-05-26T02:02:39.928Z,0.00
2019-05-26T02:03:39.908Z,0.00
2019-05-26T02:04:39.942Z,0.00
2019-05-26T02:05:39.936Z,0.00
2019-05-26T02:06:39.887Z,0.00
2019-05-26T02:07:39.911Z,0.00
2019-05-26T02:08:40.044Z,0.00
2019-05-26T02:09:39.877Z,0.00
2019-05-26T02:10:40.567Z,0.00
2019-05-26T02:11:39.826Z,0.00
2019-05-26T02:12:39.886Z,0.00
2019-05-26T02:13:39.863Z,0.00
2019-05-26T02:14:39.793Z,0.00
2019-05-26T02:15:39.786Z,0.00
2019-05-26T02:16:39.781Z,0.00
2019-05-26T02:17:39.788Z,0.00
2019-05-26T02:18:39.769Z,0.00
2019-05-26T02:19:39.805Z,0.00
2019-05-26T02:20:39.739Z,0.00
2019-05-26T02:21:39.715Z,0.00
2019-05-26T02:22:39.705Z,0.00
2019-05-26T02:23:39.713Z,0.00
2019-05-26T02:24:39.687Z,0.00
2019-05-26T02:25:39.725Z,0.00
2019-05-26T02:26:39.666Z,0.00
2019-05-26T02:27:39.654Z,0.00
2019-05-26T02:28:39.645Z,0.00
2019-05-26T02:29:39.667Z,0.00
2019-05-26T02:30:39.667Z,0.00
2019-05-26T02:31:39.655Z,0.00
2019-05-26T02:32:39.604Z,0.00
2019-05-26T02:33:39.644Z,0.00
2019-05-26T02:34:39.587Z,0.00
2019-05-26T02:35:39.586Z,0.00
2019-05-26T02:36:39.572Z,0.00
2019-05-26T02:37:40.139Z,0.00
2019-05-26T02:38:57.440Z,0.00
2019-05-26T02:39:40.554Z,0.00
2019-05-26T02:40:39.542Z,0.00
2019-05-26T02:41:39.513Z,0.00
2019-05-26T02:42:39.499Z,0.00
2019-05-26T02:43:39.523Z,0.00
2019-05-26T02:44:39.472Z,0.00
2019-05-26T02:45:39.478Z,0.00
2019-05-26T02:46:39.453Z,0.00
2019-05-26T02:47:39.456Z,0.00
2019-05-26T02:48:39.438Z,0.00
2019-05-26T02:49:39.482Z,0.00
2019-05-26T02:50:39.417Z,0.00
2019-05-26T02:51:39.422Z,0.00
2019-05-26T02:52:39.403Z,0.00
2019-05-26T02:53:39.389Z,0.00
2019-05-26T02:54:39.372Z,0.00
2019-05-26T02:55:39.875Z,0.00
2019-05-26T02:56:40.246Z,0.00
2019-05-26T02:57:39.352Z,0.00
2019-05-26T02:58:39.329Z,0.00
2019-05-26T02:59:39.320Z,0.00
2019-05-26T03:00:39.313Z,0.00
2019-05-26T03:01:58.234Z,0.00
2019-05-26T03:02:40.283Z,0.00
2019-05-26T03:03:39.296Z,0.00
2019-05-26T03:04:39.281Z,0.00
2019-05-26T03:05:39.251Z,0.00
2019-05-26T03:06:39.247Z,0.00
2019-05-26T03:07:39.271Z,0.00
2019-05-26T03:08:39.222Z,0.00
2019-05-26T03:09:39.211Z,0.00
2019-05-26T03:10:39.213Z,0.00
2019-05-26T03:11:39.200Z,0.00
2019-05-26T03:12:39.185Z,0.00
2019-05-26T03:13:39.267Z,0.00
2019-05-26T03:14:39.161Z,0.00
2019-05-26T03:15:39.150Z,0.00
2019-05-26T03:16:39.150Z,0.00
2019-05-26T03:17:39.140Z,0.00
2019-05-26T03:18:39.120Z,0.00
2019-05-26T03:19:39.141Z,0.00
2019-05-26T03:20:39.643Z,0.00
2019-05-26T03:21:39.088Z,0.00
2019-05-26T03:22:39.079Z,0.00
2019-05-26T03:23:39.066Z,0.00
2019-05-26T03:24:39.670Z,0.00
2019-05-26T03:25:39.098Z,5.62
2019-05-26T03:26:39.037Z,5.62
2019-05-26T03:27:39.029Z,5.62
2019-05-26T03:28:39.045Z,5.62
2019-05-26T03:29:38.999Z,5.62
2019-05-26T03:30:39.007Z,5.62
2019-05-26T03:31:39.044Z,5.62
2019-05-26T03:32:39.190Z,5.62
2019-05-26T03:33:38.968Z,5.62
2019-05-26T03:34:38.949Z,5.62
2019-05-26T03:35:38.952Z,5.62
2019-05-26T03:36:38.930Z,5.62
2019-05-26T03:37:38.977Z,5.62
2019-05-26T03:38:38.909Z,11.25
2019-05-26T03:39:45.429Z,11.25
2019-05-26T03:40:39.895Z,11.25
2019-05-26T03:41:38.885Z,11.25
2019-05-26T03:42:38.870Z,11.25
2019-05-26T03:43:38.939Z,11.25
2019-05-26T03:44:38.849Z,11.25
2019-05-26T03:45:38.835Z,11.25
2019-05-26T03:46:38.828Z,11.25
2019-05-26T03:47:38.826Z,11.25
2019-05-26T03:48:38.798Z,11.25
2019-05-26T03:49:39.534Z,16.88
2019-05-26T03:50:38.838Z,16.88
2019-05-26T03:51:38.777Z,16.88
2019-05-26T03:52:38.778Z,16.88
2019-05-26T03:53:38.754Z,16.88
2019-05-26T03:54:38.771Z,16.88
2019-05-26T03:55:38.777Z,16.88
2019-05-26T03:56:38.733Z,16.88
2019-05-26T03:57:38.739Z,16.88
2019-05-26T03:58:38.704Z,16.88
2019-05-26T03:59:38.697Z,22.50
2019-05-26T04:00:38.696Z,22.50
2019-05-26T04:01:38.727Z,22.50
2019-05-26T04:02:38.656Z,22.50
2019-05-26T04:03:38.648Z,22.50
2019-05-26T04:04:38.656Z,22.50
2019-05-26T04:05:38.643Z,22.50
2019-05-26T04:06:38.615Z,22.50
2019-05-26T04:07:39.076Z,22.50
2019-05-26T04:08:38.604Z,22.50
2019-05-26T04:09:38.584Z,22.50
2019-05-26T04:10:38.574Z,22.50
2019-05-26T04:11:38.564Z,28.12
2019-05-26T04:12:38.565Z,28.12
2019-05-26T04:13:38.595Z,28.12
2019-05-26T04:14:38.525Z,28.12
2019-05-26T04:15:38.518Z,28.12
2019-05-26T04:16:38.512Z,28.12
2019-05-26T04:17:38.494Z,28.12
2019-05-26T04:18:38.497Z,33.75
2019-05-26T04:19:39.324Z,33.75
2019-05-26T04:20:38.464Z,33.75
2019-05-26T04:21:38.466Z,33.75
2019-05-26T04:22:38.443Z,33.75
2019-05-26T04:23:38.523Z,33.75
2019-05-26T04:24:38.561Z,39.38
2019-05-26T04:25:38.587Z,39.38
2019-05-26T04:26:39.213Z,39.38
2019-05-26T04:27:38.397Z,39.38
2019-05-26T04:28:38.401Z,39.38
2019-05-26T04:29:39.222Z,39.38
2019-05-26T04:30:38.362Z,39.38
2019-05-26T04:31:38.402Z,39.38
2019-05-26T04:32:38.342Z,39.38
2019-05-26T04:33:38.332Z,39.38
2019-05-26T04:34:38.314Z,39.38
2019-05-26T04:35:38.325Z,39.38
2019-05-26T04:36:38.298Z,39.38
2019-05-26T04:37:38.332Z,39.38
2019-05-26T04:38:38.282Z,39.38
2019-05-26T04:39:38.267Z,39.38
2019-05-26T04:40:38.267Z,39.38
2019-05-26T04:41:38.252Z,39.38
2019-05-26T04:42:38.240Z,45.00
2019-05-26T04:43:38.283Z,45.00
2019-05-26T04:44:38.221Z,45.00
2019-05-26T04:45:38.232Z,45.00
2019-05-26T04:46:38.191Z,45.00
2019-05-26T04:47:38.193Z,45.00
2019-05-26T04:48:38.188Z,45.00
2019-05-26T04:49:38.235Z,45.00
2019-05-26T04:50:38.171Z,45.00
2019-05-26T04:51:38.158Z,50.62
2019-05-26T04:52:38.141Z,50.62
2019-05-26T04:53:38.129Z,50.62
2019-05-26T04:54:38.611Z,50.62
2019-05-26T04:55:38.241Z,50.62
2019-05-26T04:56:38.632Z,56.25
2019-05-26T04:57:38.081Z,56.25
2019-05-26T04:58:38.085Z,56.25
2019-05-26T04:59:38.060Z,61.88
2019-05-26T05:00:38.049Z,61.88
2019-05-26T05:01:38.101Z,61.88
2019-05-26T05:02:38.040Z,67.50
2019-05-26T05:03:38.740Z,67.50
2019-05-26T05:04:38.009Z,73.12
2019-05-26T05:05:37.994Z,73.12
2019-05-26T05:06:38.002Z,78.75
2019-05-26T05:07:38.021Z,78.75
2019-05-26T05:08:37.968Z,84.38
2019-05-26T05:09:38.008Z,78.75
2019-05-26T05:10:42.170Z,84.38
2019-05-26T05:11:37.928Z,84.38
2019-05-26T05:12:37.966Z,84.38
2019-05-26T05:13:37.947Z,84.38
2019-05-26T05:14:37.910Z,84.38
2019-05-26T05:15:37.901Z,84.38
2019-05-26T05:16:37.879Z,90.00
2019-05-26T05:17:37.858Z,90.00
2019-05-26T05:18:37.860Z,95.62
2019-05-26T05:19:37.927Z,95.62
2019-05-26T05:20:37.838Z,95.62
2019-05-26T05:21:37.819Z,101.25
2019-05-26T05:22:37.816Z,101.25
2019-05-26T05:23:37.807Z,101.25
2019-05-26T05:24:37.787Z,101.25
2019-05-26T05:25:37.829Z,101.25
2019-05-26T05:26:37.787Z,106.88
2019-05-26T05:27:37.760Z,106.88
2019-05-26T05:28:37.757Z,106.88
2019-05-26T05:29:37.737Z,106.88
2019-05-26T05:30:37.735Z,101.25
2019-05-26T05:31:37.777Z,95.62
2019-05-26T05:32:37.708Z,90.00
2019-05-26T05:33:37.700Z,84.38
2019-05-26T05:34:37.692Z,78.75
2019-05-26T05:35:37.675Z,73.12
2019-05-26T05:36:37.697Z,78.75
2019-05-26T05:37:37.697Z,84.38
2019-05-26T05:38:37.655Z,84.38
2019-05-26T05:39:37.647Z,84.38
2019-05-26T05:40:37.690Z,84.38
2019-05-26T05:41:37.725Z,84.38
2019-05-26T05:42:37.609Z,84.38
2019-05-26T05:43:37.626Z,90.00
2019-05-26T05:44:37.589Z,95.62
2019-05-26T05:45:37.576Z,101.25
2019-05-26T05:46:37.566Z,106.88
2019-05-26T05:47:37.557Z,112.50
2019-05-26T05:48:37.544Z,112.50
2019-05-26T05:49:37.597Z,112.50
2019-05-26T05:50:39.261Z,118.12
2019-05-26T05:51:37.515Z,123.75
2019-05-26T05:52:37.509Z,123.75
2019-05-26T05:53:37.497Z,129.38
2019-05-26T05:54:37.483Z,129.38
2019-05-26T05:55:37.546Z,129.38
2019-05-26T05:56:37.455Z,129.38
2019-05-26T05:57:37.446Z,129.38
2019-05-26T05:58:37.435Z,123.75
2019-05-26T05:59:37.432Z,123.75
2019-05-26T06:00:37.415Z,123.75
2019-05-26T06:01:37.453Z,129.38
2019-05-26T06:02:37.399Z,129.38
2019-05-26T06:03:37.384Z,123.75
2019-05-26T06:04:37.375Z,118.12
2019-05-26T06:05:37.356Z,123.75
2019-05-26T06:06:37.369Z,129.38
2019-05-26T06:07:37.420Z,140.62
2019-05-26T06:08:37.325Z,146.25
2019-05-26T06:09:37.314Z,140.62
2019-05-26T06:10:37.314Z,135.00
2019-05-26T06:11:37.804Z,129.38
2019-05-26T06:12:37.289Z,129.38
2019-05-26T06:13:37.355Z,140.62
2019-05-26T06:14:37.267Z,146.25
2019-05-26T06:15:37.254Z,140.62
2019-05-26T06:16:37.262Z,135.00
2019-05-26T06:17:37.796Z,123.75
2019-05-26T06:18:37.214Z,112.50
2019-05-26T06:19:37.808Z,118.12
2019-05-26T06:20:37.205Z,129.38
2019-05-26T06:21:37.222Z,140.62
2019-05-26T06:22:37.183Z,146.25
2019-05-26T06:23:37.398Z,146.25
2019-05-26T06:24:37.903Z,146.25
2019-05-26T06:25:37.199Z,146.25
2019-05-26T06:26:37.133Z,146.25
2019-05-26T06:27:37.135Z,146.25
2019-05-26T06:28:37.121Z,151.88
2019-05-26T06:29:37.103Z,151.88
2019-05-26T06:30:37.093Z,157.50
2019-05-26T06:31:37.327Z,163.12
2019-05-26T06:32:37.072Z,163.12
2019-05-26T06:33:37.063Z,168.75
2019-05-26T06:34:37.054Z,168.75
2019-05-26T06:35:37.049Z,168.75
2019-05-26T06:36:37.034Z,157.50
2019-05-26T06:37:37.109Z,157.50
2019-05-26T06:38:37.014Z,157.50
2019-05-26T06:39:37.011Z,157.50
2019-05-26T06:40:36.991Z,157.50
2019-05-26T06:41:36.986Z,157.50
2019-05-26T06:42:36.967Z,157.50
2019-05-26T06:43:37.004Z,157.50
2019-05-26T06:44:52.454Z,157.50
2019-05-26T06:45:37.982Z,157.50
2019-05-26T06:46:36.922Z,151.88
2019-05-26T06:47:37.582Z,146.25
2019-05-26T06:48:36.903Z,151.88
2019-05-26T06:49:36.985Z,163.12
2019-05-26T06:50:36.891Z,168.75
2019-05-26T06:51:36.872Z,180.00
2019-05-26T06:52:36.873Z,191.25
2019-05-26T06:53:37.757Z,202.50
2019-05-26T06:54:36.844Z,202.50
2019-05-26T06:55:36.863Z,208.12
2019-05-26T06:56:36.852Z,208.12
2019-05-26T06:57:36.823Z,213.75
2019-05-26T06:58:36.803Z,219.38
2019-05-26T06:59:36.791Z,213.75
2019-05-26T07:00:36.783Z,219.38
2019-05-26T07:01:36.802Z,208.12
2019-05-26T07:02:36.767Z,208.12
2019-05-26T07:03:36.743Z,208.12
2019-05-26T07:04:36.734Z,213.75
2019-05-26T07:05:36.745Z,213.75
2019-05-26T07:06:36.734Z,208.12
2019-05-26T07:07:36.756Z,202.50
2019-05-26T07:08:36.692Z,202.50
2019-05-26T07:09:36.681Z,202.50
2019-05-26T07:10:36.679Z,196.88
2019-05-26T07:11:53.934Z,202.50
2019-05-26T07:12:37.722Z,208.12
2019-05-26T07:13:36.642Z,208.12
2019-05-26T07:14:36.642Z,213.75
2019-05-26T07:15:36.621Z,213.75
2019-05-26T07:16:38.472Z,213.75
2019-05-26T07:17:36.607Z,219.38
2019-05-26T07:18:37.421Z,225.00
2019-05-26T07:19:36.583Z,230.62
2019-05-26T07:20:36.572Z,236.25
2019-05-26T07:21:36.571Z,241.88
2019-05-26T07:22:36.542Z,230.62
2019-05-26T07:23:36.557Z,230.62
2019-05-26T07:24:36.582Z,230.62
2019-05-26T07:25:36.520Z,236.25
2019-05-26T07:26:36.533Z,225.00
2019-05-26T07:27:36.501Z,213.75
2019-05-26T07:28:36.482Z,213.75
2019-05-26T07:29:36.485Z,213.75
2019-05-26T07:30:36.561Z,213.75
2019-05-26T07:31:36.461Z,219.38
2019-05-26T07:32:37.291Z,236.25
2019-05-26T07:33:36.482Z,236.25
2019-05-26T07:34:36.431Z,241.88
2019-05-26T07:35:43.330Z,241.88
2019-05-26T07:36:37.317Z,225.00
2019-05-26T07:37:36.394Z,219.38
2019-05-26T07:38:36.377Z,236.25
2019-05-26T07:39:36.370Z,253.12
2019-05-26T07:40:36.373Z,264.38
2019-05-26T07:41:36.351Z,275.62
2019-05-26T07:42:36.381Z,275.62
2019-05-26T07:43:36.325Z,270.00
2019-05-26T07:44:36.316Z,253.12
2019-05-26T07:45:36.422Z,247.50
2019-05-26T07:46:36.291Z,247.50
2019-05-26T07:47:36.800Z,247.50
2019-05-26T07:48:36.420Z,225.00
2019-05-26T07:49:36.261Z,219.38
2019-05-26T07:50:36.271Z,225.00
2019-05-26T07:51:36.239Z,230.62
2019-05-26T07:52:36.241Z,230.62
2019-05-26T07:53:36.218Z,236.25
2019-05-26T07:54:37.061Z,236.25
2019-05-26T07:55:36.804Z,286.88
2019-05-26T07:56:36.190Z,303.75
2019-05-26T07:57:36.182Z,281.25
2019-05-26T07:58:36.227Z,275.62
2019-05-26T07:59:36.150Z,281.25
2019-05-26T08:00:36.286Z,292.50
2019-05-26T08:01:36.697Z,298.12
2019-05-26T08:02:36.657Z,292.50
2019-05-26T08:03:36.291Z,298.12
2019-05-26T08:04:36.100Z,309.38
2019-05-26T08:05:36.090Z,309.38
2019-05-26T08:06:36.121Z,303.75
2019-05-26T08:07:36.070Z,303.75
2019-05-26T08:08:36.078Z,292.50
2019-05-26T08:09:36.680Z,298.12
2019-05-26T08:10:36.693Z,286.88
2019-05-26T08:11:36.072Z,286.88
2019-05-26T08:12:36.695Z,298.12
2019-05-26T08:13:36.043Z,303.75
2019-05-26T08:14:36.008Z,298.12
2019-05-26T08:15:36.691Z,309.38
2019-05-26T08:16:35.983Z,315.00
2019-05-26T08:17:36.691Z,320.62
2019-05-26T08:18:36.480Z,315.00
2019-05-26T08:19:35.949Z,320.62
2019-05-26T08:20:35.931Z,320.62
2019-05-26T08:21:35.939Z,320.62
2019-05-26T08:22:35.919Z,326.25
2019-05-26T08:23:35.941Z,343.12
2019-05-26T08:24:35.940Z,303.75
2019-05-26T08:25:35.880Z,191.25
2019-05-26T08:26:36.584Z,348.75
2019-05-26T08:27:35.894Z,343.12
2019-05-26T08:28:35.850Z,320.62
2019-05-26T08:29:35.841Z,320.62
2019-05-26T08:30:36.584Z,337.50
2019-05-26T08:31:35.830Z,326.25
2019-05-26T08:32:35.810Z,320.62
2019-05-26T08:33:35.801Z,230.62
2019-05-26T08:34:35.791Z,320.62
2019-05-26T08:35:35.790Z,320.62
2019-05-26T08:36:35.829Z,298.12
2019-05-26T08:37:35.774Z,348.75
2019-05-26T08:38:35.920Z,354.38
2019-05-26T08:39:35.740Z,360.00
2019-05-26T08:40:35.731Z,365.62
2019-05-26T08:41:35.710Z,382.50
2019-05-26T08:42:44.104Z,382.50
2019-05-26T08:43:36.710Z,399.38
2019-05-26T08:44:35.719Z,410.62
2019-05-26T08:45:35.699Z,416.25
2019-05-26T08:46:35.672Z,393.75
2019-05-26T08:47:35.650Z,399.38
2019-05-26T08:48:35.851Z,405.00
2019-05-26T08:49:35.649Z,410.62
2019-05-26T08:50:36.142Z,410.62
2019-05-26T08:51:35.612Z,427.50
2019-05-26T08:52:36.594Z,298.12
2019-05-26T08:53:35.590Z,399.38
2019-05-26T08:54:35.647Z,405.00
2019-05-26T08:55:35.561Z,388.12
2019-05-26T08:56:35.572Z,393.75
2019-05-26T08:57:35.563Z,405.00
2019-05-26T08:58:35.538Z,416.25
2019-05-26T08:59:35.557Z,421.88
2019-05-26T09:00:35.559Z,444.38
2019-05-26T09:01:36.374Z,433.12
2019-05-26T09:02:35.531Z,292.50
2019-05-26T09:03:35.499Z,343.12
2019-05-26T09:04:35.474Z,421.88
2019-05-26T09:05:35.464Z,416.25
2019-05-26T09:06:35.511Z,444.38
2019-05-26T09:07:35.462Z,438.75
2019-05-26T09:08:35.431Z,399.38
2019-05-26T09:09:35.451Z,393.75
2019-05-26T09:10:35.424Z,416.25
2019-05-26T09:11:35.412Z,405.00
2019-05-26T09:12:35.456Z,303.75
2019-05-26T09:13:35.380Z,495.00
2019-05-26T09:14:35.400Z,444.38
2019-05-26T09:15:35.361Z,472.50
2019-05-26T09:16:35.431Z,590.62
2019-05-26T09:17:35.339Z,433.12
2019-05-26T09:18:36.171Z,444.38
2019-05-26T09:19:35.319Z,371.25
2019-05-26T09:20:35.841Z,371.25
2019-05-26T09:21:35.296Z,360.00
2019-05-26T09:22:35.289Z,315.00
2019-05-26T09:23:35.272Z,281.25
2019-05-26T09:24:35.302Z,247.50
2019-05-26T09:25:35.253Z,225.00
2019-05-26T09:26:35.241Z,208.12
2019-05-26T09:27:35.238Z,185.62
2019-05-26T09:28:35.240Z,191.25
2019-05-26T09:29:35.275Z,202.50
2019-05-26T09:30:35.413Z,213.75
2019-05-26T09:31:35.235Z,208.12
2019-05-26T09:32:35.181Z,202.50
2019-05-26T09:33:35.172Z,196.88
2019-05-26T09:34:35.291Z,196.88
2019-05-26T09:35:35.144Z,208.12
2019-05-26T09:36:35.171Z,213.75
2019-05-26T09:37:35.149Z,208.12
2019-05-26T09:38:35.991Z,196.88
2019-05-26T09:39:35.101Z,180.00
2019-05-26T09:40:35.107Z,168.75
2019-05-26T09:41:35.152Z,168.75
2019-05-26T09:42:35.152Z,168.75
2019-05-26T09:43:35.216Z,168.75
2019-05-26T09:44:36.684Z,174.38
2019-05-26T09:45:35.043Z,168.75
2019-05-26T09:46:35.045Z,168.75
2019-05-26T09:47:35.020Z,157.50
2019-05-26T09:48:35.132Z,151.88
2019-05-26T09:49:34.995Z,151.88
2019-05-26T09:50:35.006Z,157.50
2019-05-26T09:51:35.283Z,163.12
2019-05-26T09:52:35.098Z,180.00
2019-05-26T09:53:34.961Z,196.88
2019-05-26T09:54:34.993Z,219.38
2019-05-26T09:55:34.948Z,247.50
2019-05-26T09:56:34.937Z,264.38
2019-05-26T09:57:34.921Z,270.00
2019-05-26T09:58:35.082Z,275.62
2019-05-26T09:59:34.903Z,281.25
2019-05-26T10:00:34.924Z,275.62
2019-05-26T10:01:35.669Z,270.00
2019-05-26T10:02:34.874Z,258.75
2019-05-26T10:03:34.852Z,241.88
2019-05-26T10:04:34.883Z,230.62
2019-05-26T10:05:34.840Z,219.38
2019-05-26T10:06:35.393Z,208.12
2019-05-26T10:07:34.813Z,202.50
2019-05-26T10:08:34.811Z,213.75
2019-05-26T10:09:34.792Z,230.62
2019-05-26T10:10:35.071Z,258.75
2019-05-26T10:11:35.463Z,275.62
2019-05-26T10:12:34.800Z,292.50
2019-05-26T10:13:34.763Z,292.50
2019-05-26T10:14:34.795Z,275.62
2019-05-26T10:15:34.743Z,258.75
2019-05-26T10:16:34.773Z,241.88
2019-05-26T10:17:34.717Z,230.62
2019-05-26T10:18:35.122Z,219.38
2019-05-26T10:19:34.768Z,202.50
2019-05-26T10:20:34.917Z,202.50
2019-05-26T10:21:35.092Z,202.50
2019-05-26T10:22:35.075Z,208.12
2019-05-26T10:23:34.682Z,219.38
2019-05-26T10:24:34.725Z,236.25
2019-05-26T10:25:34.820Z,247.50
2019-05-26T10:26:35.033Z,258.75
2019-05-26T10:27:35.283Z,270.00
2019-05-26T10:28:35.080Z,275.62
2019-05-26T10:29:35.392Z,270.00
2019-05-26T10:30:34.644Z,270.00
2019-05-26T10:31:34.585Z,275.62
2019-05-26T10:32:34.554Z,298.12
2019-05-26T10:33:34.597Z,315.00
2019-05-26T10:34:34.545Z,315.00
2019-05-26T10:35:34.532Z,298.12
2019-05-26T10:36:34.555Z,270.00
2019-05-26T10:37:34.513Z,247.50
2019-05-26T10:38:36.007Z,241.88
2019-05-26T10:39:34.532Z,258.75
2019-05-26T10:40:34.484Z,281.25
2019-05-26T10:41:34.533Z,292.50
2019-05-26T10:42:34.515Z,298.12
2019-05-26T10:43:46.174Z,281.25
2019-05-26T10:44:35.455Z,270.00
2019-05-26T10:45:37.365Z,264.38
2019-05-26T10:46:34.760Z,275.62
2019-05-26T10:47:35.368Z,281.25
2019-05-26T10:48:34.894Z,275.62
2019-05-26T10:49:35.396Z,270.00
2019-05-26T10:50:34.885Z,275.62
2019-05-26T10:51:34.394Z,309.38
2019-05-26T10:52:34.354Z,331.88
2019-05-26T10:53:34.342Z,320.62
2019-05-26T10:54:35.832Z,303.75
2019-05-26T10:55:34.348Z,292.50
2019-05-26T10:56:34.316Z,303.75
2019-05-26T10:57:34.309Z,331.88
2019-05-26T10:58:34.936Z,354.38
2019-05-26T10:59:35.549Z,365.62
2019-05-26T11:00:34.685Z,393.75
2019-05-26T11:01:34.255Z,405.00
2019-05-26T11:02:35.804Z,376.88
2019-05-26T11:03:34.750Z,376.88
2019-05-26T11:04:35.763Z,371.25
2019-05-26T11:05:35.232Z,343.12
2019-05-26T11:06:34.354Z,303.75
2019-05-26T11:07:34.191Z,281.25
2019-05-26T11:08:34.184Z,270.00
2019-05-26T11:09:34.164Z,270.00
2019-05-26T11:10:34.827Z,258.75
2019-05-26T11:11:34.149Z,230.62
2019-05-26T11:12:34.975Z,208.12
2019-05-26T11:13:34.682Z,213.75
2019-05-26T11:14:34.122Z,225.00
2019-05-26T11:15:34.115Z,236.25
2019-05-26T11:16:34.116Z,241.88
2019-05-26T11:17:34.226Z,236.25
2019-05-26T11:18:34.826Z,241.88
2019-05-26T11:19:34.105Z,258.75
2019-05-26T11:20:34.056Z,270.00
2019-05-26T11:21:34.035Z,275.62
2019-05-26T11:22:34.029Z,270.00
2019-05-26T11:23:34.033Z,270.00
2019-05-26T11:24:34.059Z,270.00
2019-05-26T11:25:35.828Z,264.38
2019-05-26T11:26:33.996Z,264.38
2019-05-26T11:27:33.976Z,270.00
2019-05-26T11:28:33.956Z,275.62
2019-05-26T11:29:34.826Z,292.50
2019-05-26T11:30:34.036Z,309.38
2019-05-26T11:31:34.613Z,315.00
2019-05-26T11:32:33.967Z,326.25
2019-05-26T11:33:33.922Z,320.62
2019-05-26T11:34:33.895Z,309.38
2019-05-26T11:35:34.761Z,298.12
2019-05-26T11:36:34.262Z,292.50
2019-05-26T11:37:33.925Z,292.50
2019-05-26T11:38:34.017Z,286.88
2019-05-26T11:39:33.865Z,281.25
2019-05-26T11:40:33.845Z,275.62
2019-05-26T11:41:33.832Z,281.25
2019-05-26T11:42:33.866Z,298.12
2019-05-26T11:43:33.808Z,292.50
2019-05-26T11:44:33.939Z,292.50
2019-05-26T11:45:33.953Z,298.12
2019-05-26T11:46:34.095Z,303.75
2019-05-26T11:47:34.156Z,315.00
2019-05-26T11:48:35.025Z,326.25
2019-05-26T11:49:33.746Z,331.88
2019-05-26T11:50:33.772Z,326.25
2019-05-26T11:51:33.735Z,337.50
2019-05-26T11:52:33.727Z,382.50
2019-05-26T11:53:33.707Z,348.75
2019-05-26T11:54:34.842Z,348.75
2019-05-26T11:55:33.835Z,337.50
2019-05-26T11:56:33.715Z,298.12
2019-05-26T11:57:36.524Z,270.00
2019-05-26T11:58:33.827Z,270.00
2019-05-26T11:59:33.910Z,275.62
2019-05-26T12:00:34.076Z,275.62
2019-05-26T12:01:33.860Z,270.00
2019-05-26T12:02:34.918Z,270.00
2019-05-26T12:03:33.618Z,270.00
2019-05-26T12:04:33.639Z,275.62
2019-05-26T12:05:33.780Z,292.50
2019-05-26T12:06:33.614Z,275.62
2019-05-26T12:07:33.558Z,275.62
2019-05-26T12:08:33.564Z,309.38
2019-05-26T12:09:33.650Z,331.88
2019-05-26T12:10:33.659Z,365.62
2019-05-26T12:11:33.553Z,405.00
2019-05-26T12:12:33.547Z,365.62
2019-05-26T12:13:36.548Z,348.75
2019-05-26T12:14:35.460Z,337.50
2019-05-26T12:15:33.466Z,326.25
2019-05-26T12:16:33.487Z,303.75
2019-05-26T12:17:33.450Z,286.88
2019-05-26T12:18:33.466Z,286.88
2019-05-26T12:19:33.434Z,281.25
2019-05-26T12:20:33.426Z,281.25
2019-05-26T12:21:33.433Z,270.00
2019-05-26T12:22:33.443Z,270.00
2019-05-26T12:23:34.396Z,270.00
2019-05-26T12:24:34.262Z,281.25
2019-05-26T12:25:33.938Z,298.12
2019-05-26T12:26:33.347Z,320.62
2019-05-26T12:27:33.358Z,360.00
2019-05-26T12:28:33.346Z,331.88
2019-05-26T12:29:33.327Z,320.62
2019-05-26T12:30:33.448Z,315.00
2019-05-26T12:31:33.316Z,315.00
2019-05-26T12:32:33.297Z,320.62
2019-05-26T12:33:33.286Z,331.88
2019-05-26T12:34:33.298Z,343.12
2019-05-26T12:35:33.710Z,399.38
2019-05-26T12:36:33.568Z,466.88
2019-05-26T12:37:34.396Z,438.75
2019-05-26T12:38:33.517Z,483.75
2019-05-26T12:39:33.659Z,500.62
2019-05-26T12:40:33.597Z,545.62
2019-05-26T12:41:36.870Z,573.75
2019-05-26T12:42:33.417Z,545.62
2019-05-26T12:43:33.459Z,646.88
2019-05-26T12:44:48.580Z,562.50
2019-05-26T12:45:34.766Z,517.50
2019-05-26T12:46:33.497Z,517.50